createdAt,value
2023-03-21T00:00:24.485Z,11.80
2023-03-21T00:01:26.041Z,14.57
2023-03-21T00:02:27.634Z,10.55
2023-03-21T00:03:30.069Z,10.98
2023-03-21T00:04:44.607Z,10.73
2023-03-21T00:05:52.391Z,10.70
2023-03-21T00:06:54.039Z,9.30
2023-03-21T00:07:58.722Z,10.70
2023-03-21T00:09:01.453Z,8.65
2023-03-21T00:10:14.361Z,11.05
2023-03-21T00:11:17.301Z,9.68
2023-03-21T00:12:18.923Z,8.93
2023-03-21T00:13:20.540Z,10.88
2023-03-21T00:14:22.255Z,10.48
2023-03-21T00:15:30.578Z,9.52
2023-03-21T00:16:39.717Z,16.63
2023-03-21T00:17:41.868Z,14.77
2023-03-21T00:18:44.423Z,10.00
2023-03-21T00:19:46.020Z,9.60
2023-03-21T00:21:15.795Z,9.85
2023-03-21T00:22:17.342Z,16.00
2023-03-21T00:23:18.962Z,29.58
2023-03-21T00:24:20.970Z,25.75
2023-03-21T00:25:22.736Z,25.67
2023-03-21T00:26:24.549Z,28.20
2023-03-21T00:27:45.207Z,30.97
2023-03-21T00:28:48.394Z,27.42
2023-03-21T00:29:49.945Z,27.83
2023-03-21T00:30:52.142Z,27.02
2023-03-21T00:31:53.603Z,27.77
2023-03-21T00:32:56.751Z,27.02
2023-03-21T00:33:58.561Z,24.38
2023-03-21T00:35:25.825Z,28.45
2023-03-21T00:36:21.755Z,25.42
2023-03-21T00:37:23.344Z,27.10
2023-03-21T00:38:25.262Z,24.30
2023-03-21T00:39:26.958Z,28.20
2023-03-21T00:40:35.069Z,24.60
2023-03-21T00:41:42.847Z,25.75
2023-03-21T00:42:44.689Z,27.13
2023-03-21T00:43:46.288Z,26.90
2023-03-21T00:44:47.732Z,26.02
2023-03-21T00:45:50.124Z,26.55
2023-03-21T00:47:06.135Z,24.83
2023-03-21T00:48:08.788Z,24.73
2023-03-21T00:49:10.318Z,30.53
2023-03-21T00:50:12.021Z,30.40
2023-03-21T00:51:21.087Z,29.40
2023-03-21T00:52:34.384Z,29.90
2023-03-21T00:53:42.222Z,26.90
2023-03-21T00:54:43.753Z,25.90
2023-03-21T00:55:45.520Z,26.80
2023-03-21T00:56:47.194Z,29.58
2023-03-21T00:57:56.122Z,28.95
2023-03-21T00:59:03.069Z,30.98
2023-03-21T01:00:04.853Z,35.57
2023-03-21T01:01:06.672Z,29.23
2023-03-21T01:02:08.405Z,26.25
2023-03-21T01:03:23.632Z,26.38
2023-03-21T01:04:26.939Z,26.40
2023-03-21T01:05:29.290Z,25.58
2023-03-21T01:06:31.300Z,26.45
2023-03-21T01:07:32.895Z,29.08
2023-03-21T01:08:51.354Z,28.00
2023-03-21T01:09:53.954Z,24.75
2023-03-21T01:10:56.413Z,26.30
2023-03-21T01:11:58.070Z,29.23
2023-03-21T01:13:00.001Z,24.55
2023-03-21T01:14:18.770Z,36.35
2023-03-21T01:15:23.049Z,24.88
2023-03-21T01:16:25.235Z,27.30
2023-03-21T01:17:27.128Z,33.22
2023-03-21T01:18:29.751Z,28.88
2023-03-21T01:19:44.696Z,27.00
2023-03-21T01:20:52.159Z,25.73
2023-03-21T01:21:54.169Z,28.10
2023-03-21T01:22:55.648Z,26.48
2023-03-21T01:23:57.152Z,25.08
2023-03-21T01:25:05.895Z,20.67
2023-03-21T01:26:14.796Z,26.08
2023-03-21T01:27:16.346Z,25.10
2023-03-21T01:28:18.031Z,25.77
2023-03-21T01:29:19.756Z,23.45
2023-03-21T01:30:23.981Z,26.58
2023-03-21T01:31:26.660Z,27.42
2023-03-21T01:32:28.337Z,24.47
2023-03-21T01:33:30.356Z,25.73
2023-03-21T01:34:31.910Z,31.20
2023-03-21T01:35:40.945Z,111.97
2023-03-21T01:36:49.879Z,93.40
2023-03-21T01:37:51.398Z,54.17
2023-03-21T01:38:53.148Z,35.00
2023-03-21T01:39:54.704Z,24.23
2023-03-21T01:40:56.443Z,25.88
2023-03-21T01:41:57.948Z,27.02
2023-03-21T01:42:59.633Z,24.40
2023-03-21T01:44:01.243Z,24.83
2023-03-21T01:45:07.542Z,23.92
2023-03-21T01:46:21.353Z,23.33
2023-03-21T01:47:23.736Z,24.15
2023-03-21T01:48:26.761Z,21.45
2023-03-21T01:49:57.408Z,25.33
2023-03-21T01:50:59.885Z,24.38
2023-03-21T01:52:12.288Z,25.42
2023-03-21T01:53:19.717Z,24.33
2023-03-21T01:54:23.526Z,25.33
2023-03-21T01:55:25.341Z,27.45
2023-03-21T01:56:29.377Z,22.17
2023-03-21T01:57:42.447Z,24.13
2023-03-21T01:58:47.147Z,21.48
2023-03-21T01:59:51.012Z,23.00
2023-03-21T02:00:52.903Z,19.67
2023-03-21T02:01:56.106Z,22.90
2023-03-21T02:03:11.155Z,21.23
2023-03-21T02:04:13.660Z,23.45
2023-03-21T02:05:15.196Z,21.13
2023-03-21T02:06:20.118Z,24.10
2023-03-21T02:07:32.185Z,24.20
2023-03-21T02:08:39.533Z,26.45
2023-03-21T02:09:43.437Z,24.80
2023-03-21T02:10:50.410Z,26.20
2023-03-21T02:11:52.165Z,23.20
2023-03-21T02:12:53.798Z,24.35
2023-03-21T02:14:05.709Z,23.50
2023-03-21T02:15:08.531Z,26.85
2023-03-21T02:16:13.096Z,27.13
2023-03-21T02:17:26.732Z,23.95
2023-03-21T02:18:28.363Z,21.85
2023-03-21T02:19:35.682Z,23.88
2023-03-21T02:21:03.860Z,21.38
2023-03-21T02:22:24.062Z,23.92
2023-03-21T02:23:44.758Z,26.60
2023-03-21T02:24:48.951Z,24.33
2023-03-21T02:26:01.789Z,25.23
2023-03-21T02:27:09.172Z,19.88
2023-03-21T02:28:17.087Z,21.43
2023-03-21T02:29:41.946Z,19.52
2023-03-21T02:31:00.695Z,21.20
2023-03-21T02:32:34.874Z,21.38
2023-03-21T02:33:51.091Z,22.67
2023-03-21T02:34:52.652Z,20.15
2023-03-21T02:36:14.426Z,23.83
2023-03-21T02:37:38.808Z,24.15
2023-03-21T02:39:06.857Z,24.52
2023-03-21T02:40:27.145Z,24.88
2023-03-21T02:41:40.014Z,24.37
2023-03-21T02:42:43.385Z,23.77
2023-03-21T02:43:56.776Z,23.50
2023-03-21T02:45:21.651Z,25.13
2023-03-21T02:46:40.062Z,25.35
2023-03-21T02:47:53.093Z,19.52
2023-03-21T02:48:57.654Z,22.95
2023-03-21T02:50:21.934Z,20.52
2023-03-21T02:51:24.920Z,25.20
2023-03-21T02:52:38.569Z,23.35
2023-03-21T02:53:41.519Z,25.20
2023-03-21T02:54:48.397Z,22.70
2023-03-21T02:55:51.143Z,24.27
2023-03-21T02:56:53.903Z,22.42
2023-03-21T02:57:56.949Z,22.45
2023-03-21T02:58:58.836Z,22.42
2023-03-21T03:00:10.711Z,21.15
2023-03-21T03:01:17.484Z,18.27
2023-03-21T03:02:22.705Z,19.00
2023-03-21T03:03:33.913Z,22.85
2023-03-21T03:04:36.561Z,22.33
2023-03-21T03:05:43.826Z,20.58
2023-03-21T03:07:04.103Z,19.30
2023-03-21T03:08:11.365Z,19.67
2023-03-21T03:09:18.430Z,20.02
2023-03-21T03:10:20.054Z,21.00
2023-03-21T03:11:24.344Z,18.95
2023-03-21T03:12:43.179Z,16.00
2023-03-21T03:13:48.021Z,18.30
2023-03-21T03:15:02.696Z,18.88
2023-03-21T03:16:07.791Z,21.13
2023-03-21T03:17:28.526Z,17.77
2023-03-21T03:18:39.549Z,18.80
2023-03-21T03:20:04.317Z,18.80
2023-03-21T03:21:15.306Z,20.08
2023-03-21T03:22:22.667Z,17.17
2023-03-21T03:23:27.186Z,17.85
2023-03-21T03:24:34.388Z,20.02
2023-03-21T03:25:43.309Z,19.48
2023-03-21T03:26:48.319Z,21.88
2023-03-21T03:27:50.971Z,18.23
2023-03-21T03:28:55.176Z,18.77
2023-03-21T03:29:58.194Z,17.05
2023-03-21T03:31:09.254Z,20.15
2023-03-21T03:32:14.718Z,15.63
2023-03-21T03:33:16.689Z,17.63
2023-03-21T03:34:20.120Z,18.55
2023-03-21T03:35:22.021Z,38.85
2023-03-21T03:36:32.084Z,46.55
2023-03-21T03:37:35.023Z,47.70
2023-03-21T03:38:37.683Z,45.43
2023-03-21T03:39:51.778Z,39.25
2023-03-21T03:41:01.119Z,31.73
2023-03-21T03:42:18.472Z,19.10
2023-03-21T03:43:34.104Z,17.50
2023-03-21T03:44:36.304Z,22.88
2023-03-21T03:45:42.968Z,17.13
2023-03-21T03:46:50.603Z,19.40
2023-03-21T03:47:58.547Z,20.08
2023-03-21T03:49:06.031Z,17.52
2023-03-21T03:50:12.583Z,17.50
2023-03-21T03:51:21.029Z,18.45
2023-03-21T03:52:34.392Z,17.02
2023-03-21T03:53:43.321Z,20.45
2023-03-21T03:54:46.482Z,17.58
2023-03-21T03:55:49.325Z,22.48
2023-03-21T03:56:51.216Z,18.30
2023-03-21T03:57:53.708Z,14.77
2023-03-21T03:58:56.843Z,17.20
2023-03-21T03:59:58.589Z,20.90
2023-03-21T04:01:00.215Z,19.60
2023-03-21T04:02:01.976Z,19.85
2023-03-21T04:03:03.779Z,16.88
2023-03-21T04:04:12.936Z,17.92
2023-03-21T04:05:15.359Z,20.95
2023-03-21T04:06:17.640Z,18.63
2023-03-21T04:07:22.133Z,19.33
2023-03-21T04:08:23.725Z,19.10
2023-03-21T04:09:37.480Z,20.73
2023-03-21T04:10:45.204Z,23.73
2023-03-21T04:11:47.102Z,17.43
2023-03-21T04:12:48.927Z,18.58
2023-03-21T04:13:50.464Z,17.13
2023-03-21T04:14:53.302Z,19.13
2023-03-21T04:15:56.862Z,21.90
2023-03-21T04:16:58.522Z,16.95
2023-03-21T04:18:00.279Z,19.90
2023-03-21T04:19:01.968Z,20.67
2023-03-21T04:20:11.587Z,17.10
2023-03-21T04:21:14.889Z,18.95
2023-03-21T04:22:16.465Z,20.63
2023-03-21T04:23:18.716Z,20.58
2023-03-21T04:24:20.294Z,17.83
2023-03-21T04:25:32.794Z,20.10
2023-03-21T04:26:35.512Z,17.10
2023-03-21T04:27:37.232Z,19.85
2023-03-21T04:28:38.968Z,15.98
2023-03-21T04:29:40.718Z,16.55
2023-03-21T04:30:52.033Z,18.75
2023-03-21T04:32:02.245Z,17.98
2023-03-21T04:33:03.979Z,19.80
2023-03-21T04:34:06.013Z,19.10
2023-03-21T04:35:08.291Z,28.63
2023-03-21T04:36:10.397Z,27.77
2023-03-21T04:37:12.122Z,33.75
2023-03-21T04:38:13.748Z,32.70
2023-03-21T04:39:15.463Z,30.75
2023-03-21T04:40:17.075Z,33.15
2023-03-21T04:41:19.071Z,45.92
2023-03-21T04:42:20.704Z,29.05
2023-03-21T04:43:22.396Z,38.47
2023-03-21T04:44:24.084Z,25.70
2023-03-21T04:45:25.652Z,22.42
2023-03-21T04:46:27.228Z,26.92
2023-03-21T04:47:28.801Z,23.17
2023-03-21T04:48:30.594Z,22.98
2023-03-21T04:49:32.228Z,22.02
2023-03-21T04:50:33.894Z,26.85
2023-03-21T04:51:36.461Z,25.60
2023-03-21T04:52:38.133Z,28.67
2023-03-21T04:53:39.859Z,24.17
2023-03-21T04:54:41.818Z,25.45
2023-03-21T04:55:43.387Z,22.25
2023-03-21T04:56:44.985Z,28.10
2023-03-21T04:57:46.551Z,25.58
2023-03-21T04:58:48.107Z,28.00
2023-03-21T04:59:49.635Z,28.25
2023-03-21T05:00:51.285Z,27.35
2023-03-21T05:01:53.165Z,24.25
2023-03-21T05:02:54.918Z,21.50
2023-03-21T05:04:00.274Z,21.47
2023-03-21T05:05:02.151Z,23.75
2023-03-21T05:06:03.883Z,21.35
2023-03-21T05:07:05.840Z,24.00
2023-03-21T05:08:07.412Z,26.70
2023-03-21T05:09:09.251Z,23.95
2023-03-21T05:10:11.797Z,21.58
2023-03-21T05:11:13.644Z,25.88
2023-03-21T05:12:15.510Z,30.70
2023-03-21T05:13:17.143Z,38.95
2023-03-21T05:14:23.540Z,33.87
2023-03-21T05:15:25.163Z,36.83
2023-03-21T05:16:27.036Z,26.23
2023-03-21T05:17:28.711Z,26.15
2023-03-21T05:18:30.236Z,22.23
2023-03-21T05:19:32.425Z,25.35
2023-03-21T05:20:34.153Z,21.98
2023-03-21T05:21:35.873Z,22.63
2023-03-21T05:22:37.600Z,23.27
2023-03-21T05:23:39.247Z,21.30
2023-03-21T05:24:41.263Z,18.87
2023-03-21T05:25:42.941Z,21.10
2023-03-21T05:26:44.971Z,21.02
2023-03-21T05:27:47.011Z,21.95
2023-03-21T05:28:48.827Z,19.38
2023-03-21T05:29:50.451Z,18.13
2023-03-21T05:30:51.988Z,22.75
2023-03-21T05:31:53.790Z,25.25
2023-03-21T05:32:55.505Z,24.23
2023-03-21T05:33:57.168Z,18.75
2023-03-21T05:34:59.013Z,22.97
2023-03-21T05:36:00.788Z,24.02
2023-03-21T05:37:02.536Z,24.42
2023-03-21T05:38:04.283Z,21.45
2023-03-21T05:39:06.091Z,19.38
2023-03-21T05:40:08.165Z,22.50
2023-03-21T05:41:09.849Z,21.13
2023-03-21T05:42:11.478Z,21.67
2023-03-21T05:43:13.028Z,18.33
2023-03-21T05:44:14.645Z,18.23
2023-03-21T05:45:16.403Z,18.37
2023-03-21T05:46:17.963Z,17.15
2023-03-21T05:47:19.872Z,18.65
2023-03-21T05:48:21.435Z,18.35
2023-03-21T05:49:23.052Z,23.00
2023-03-21T05:50:24.726Z,28.95
2023-03-21T05:51:26.231Z,17.48
2023-03-21T05:52:27.884Z,18.02
2023-03-21T05:53:29.566Z,19.90
2023-03-21T05:54:31.275Z,17.55
2023-03-21T05:55:32.962Z,16.70
2023-03-21T05:56:34.588Z,25.13
2023-03-21T05:57:36.145Z,20.40
2023-03-21T05:58:37.680Z,18.15
2023-03-21T05:59:39.205Z,17.25
2023-03-21T06:00:40.813Z,16.73
2023-03-21T06:01:42.727Z,21.25
2023-03-21T06:02:45.085Z,17.88
2023-03-21T06:03:46.869Z,19.23
2023-03-21T06:04:48.494Z,18.33
2023-03-21T06:05:50.078Z,19.20
2023-03-21T06:06:51.726Z,17.45
2023-03-21T06:07:53.444Z,14.27
2023-03-21T06:08:55.161Z,15.82
2023-03-21T06:09:57.209Z,17.77
2023-03-21T06:10:58.855Z,17.90
2023-03-21T06:12:00.529Z,21.92
2023-03-21T06:13:02.257Z,18.80
2023-03-21T06:14:04.046Z,16.50
2023-03-21T06:15:06.292Z,15.90
2023-03-21T06:16:08.088Z,17.83
2023-03-21T06:17:09.765Z,18.42
2023-03-21T06:18:11.741Z,16.38
2023-03-21T06:19:13.579Z,17.95
2023-03-21T06:20:15.445Z,23.08
2023-03-21T06:21:17.100Z,18.55
2023-03-21T06:22:18.824Z,20.88
2023-03-21T06:23:20.596Z,18.10
2023-03-21T06:24:22.349Z,17.85
2023-03-21T06:25:23.900Z,20.23
2023-03-21T06:26:25.662Z,23.40
2023-03-21T06:27:27.366Z,19.75
2023-03-21T06:28:28.974Z,23.23
2023-03-21T06:29:30.575Z,21.27
2023-03-21T06:30:32.177Z,26.35
2023-03-21T06:31:34.144Z,21.10
2023-03-21T06:32:36.281Z,21.63
2023-03-21T06:33:38.093Z,20.48
2023-03-21T06:34:39.873Z,19.30
2023-03-21T06:35:41.668Z,20.65
2023-03-21T06:36:43.256Z,17.37
2023-03-21T06:37:44.973Z,15.05
2023-03-21T06:38:46.582Z,21.40
2023-03-21T06:39:48.238Z,17.75
2023-03-21T06:40:50.204Z,17.67
2023-03-21T06:41:52.077Z,19.27
2023-03-21T06:42:54.423Z,20.17
2023-03-21T06:43:56.352Z,16.40
2023-03-21T06:44:58.321Z,18.13
2023-03-21T06:46:00.563Z,16.15
2023-03-21T06:47:02.225Z,15.47
2023-03-21T06:48:03.899Z,15.27
2023-03-21T06:49:05.539Z,16.15
2023-03-21T06:50:07.469Z,15.27
2023-03-21T06:51:09.061Z,21.95
2023-03-21T06:52:11.263Z,18.70
2023-03-21T06:53:13.090Z,17.55
2023-03-21T06:54:14.835Z,20.23
2023-03-21T06:55:16.580Z,20.80
2023-03-21T06:56:18.364Z,18.40
2023-03-21T06:57:20.072Z,21.17
2023-03-21T06:58:22.205Z,22.00
2023-03-21T06:59:23.921Z,37.83
2023-03-21T07:00:25.655Z,30.27
2023-03-21T07:01:27.137Z,27.75
2023-03-21T07:02:29.061Z,27.45
2023-03-21T07:03:31.366Z,22.88
2023-03-21T07:04:33.527Z,20.35
2023-03-21T07:05:36.605Z,26.13
2023-03-21T07:06:38.670Z,24.45
2023-03-21T07:07:40.911Z,13.77
2023-03-21T07:08:42.569Z,17.65
2023-03-21T07:09:44.151Z,14.05
2023-03-21T07:10:46.101Z,19.13
2023-03-21T07:11:47.742Z,14.10
2023-03-21T07:12:49.500Z,14.77
2023-03-21T07:13:51.597Z,15.02
2023-03-21T07:14:53.391Z,11.57
2023-03-21T07:15:55.156Z,11.85
2023-03-21T07:16:57.032Z,11.82
2023-03-21T07:17:58.658Z,13.03
2023-03-21T07:19:00.429Z,13.55
2023-03-21T07:20:02.013Z,12.90
2023-03-21T07:21:04.048Z,15.00
2023-03-21T07:22:05.543Z,16.77
2023-03-21T07:23:07.308Z,13.57
2023-03-21T07:24:08.969Z,15.95
2023-03-21T07:25:10.908Z,14.23
2023-03-21T07:26:12.791Z,13.95
2023-03-21T07:27:18.239Z,19.13
2023-03-21T07:28:20.422Z,13.70
2023-03-21T07:29:22.199Z,17.95
2023-03-21T07:30:23.883Z,14.55
2023-03-21T07:31:25.492Z,16.20
2023-03-21T07:32:27.079Z,27.95
2023-03-21T07:33:28.820Z,22.40
2023-03-21T07:34:30.444Z,22.60
2023-03-21T07:35:32.010Z,20.45
2023-03-21T07:36:33.875Z,15.32
2023-03-21T07:37:37.847Z,21.67
2023-03-21T07:38:40.089Z,17.87
2023-03-21T07:39:41.894Z,15.90
2023-03-21T07:40:43.860Z,17.80
2023-03-21T07:41:45.417Z,21.13
2023-03-21T07:42:48.814Z,15.90
2023-03-21T07:43:50.327Z,14.93
2023-03-21T07:44:52.005Z,15.50
2023-03-21T07:45:56.857Z,20.67
2023-03-21T07:46:58.818Z,23.83
2023-03-21T07:48:00.889Z,22.23
2023-03-21T07:49:02.499Z,18.97
2023-03-21T07:50:04.254Z,18.42
2023-03-21T07:51:05.888Z,17.63
2023-03-21T07:52:07.464Z,18.20
2023-03-21T07:53:09.312Z,19.20
2023-03-21T07:54:10.868Z,17.63
2023-03-21T07:55:12.654Z,17.40
2023-03-21T07:56:14.550Z,20.17
2023-03-21T07:57:16.175Z,19.20
2023-03-21T07:58:17.759Z,18.52
2023-03-21T07:59:19.461Z,22.67
2023-03-21T08:00:21.811Z,17.45
2023-03-21T08:01:23.398Z,17.88
2023-03-21T08:02:25.225Z,20.42
2023-03-21T08:03:26.877Z,19.30
2023-03-21T08:04:29.148Z,20.30
2023-03-21T08:05:34.316Z,19.05
2023-03-21T08:06:36.041Z,20.90
2023-03-21T08:07:37.865Z,18.10
2023-03-21T08:08:39.712Z,17.35
2023-03-21T08:09:42.913Z,16.60
2023-03-21T08:10:44.691Z,15.25
2023-03-21T08:11:46.267Z,20.92
2023-03-21T08:12:48.054Z,14.35
2023-03-21T08:13:49.637Z,15.55
2023-03-21T08:14:51.225Z,15.05
2023-03-21T08:15:52.873Z,17.15
2023-03-21T08:16:54.698Z,14.43
2023-03-21T08:17:56.499Z,17.83
2023-03-21T08:18:58.178Z,15.75
2023-03-21T08:19:59.902Z,16.10
2023-03-21T08:21:01.511Z,16.17
2023-03-21T08:22:03.327Z,13.68
2023-03-21T08:23:04.943Z,16.48
2023-03-21T08:24:06.603Z,14.15
2023-03-21T08:25:08.590Z,16.20
2023-03-21T08:26:10.314Z,15.40
2023-03-21T08:27:11.891Z,14.27
2023-03-21T08:28:13.569Z,17.17
2023-03-21T08:29:15.352Z,12.55
2023-03-21T08:30:18.477Z,12.80
2023-03-21T08:31:20.730Z,12.20
2023-03-21T08:32:22.662Z,11.95
2023-03-21T08:33:24.280Z,14.38
2023-03-21T08:34:25.893Z,14.38
2023-03-21T08:35:27.501Z,15.10
2023-03-21T08:36:29.148Z,15.15
2023-03-21T08:37:30.678Z,13.98
2023-03-21T08:38:32.523Z,14.70
2023-03-21T08:39:34.054Z,13.18
2023-03-21T08:40:36.108Z,13.93
2023-03-21T08:41:38.206Z,14.32
2023-03-21T08:42:40.856Z,15.68
2023-03-21T08:43:42.565Z,13.45
2023-03-21T08:44:44.225Z,14.32
2023-03-21T08:45:45.793Z,12.02
2023-03-21T08:46:47.488Z,16.30
2023-03-21T08:47:49.122Z,13.10
2023-03-21T08:48:50.690Z,15.60
2023-03-21T08:49:52.254Z,12.40
2023-03-21T08:50:53.871Z,13.83
2023-03-21T08:51:56.144Z,14.65
2023-03-21T08:52:58.196Z,12.25
2023-03-21T08:54:00.115Z,12.20
2023-03-21T08:55:01.843Z,15.80
2023-03-21T08:56:03.805Z,12.23
2023-03-21T08:57:05.411Z,14.88
2023-03-21T08:58:07.025Z,12.48
2023-03-21T08:59:08.604Z,14.95
2023-03-21T09:00:12.869Z,14.80
2023-03-21T09:01:14.548Z,14.90
2023-03-21T09:02:17.082Z,12.70
2023-03-21T09:03:18.766Z,13.50
2023-03-21T09:04:20.673Z,15.38
2023-03-21T09:05:22.663Z,16.30
2023-03-21T09:06:24.319Z,12.43
2023-03-21T09:07:25.861Z,14.98
2023-03-21T09:08:27.479Z,11.50
2023-03-21T09:09:29.200Z,16.30
2023-03-21T09:10:30.852Z,16.33
2023-03-21T09:11:32.462Z,13.60
2023-03-21T09:12:34.392Z,13.00
2023-03-21T09:13:36.265Z,12.23
2023-03-21T09:14:38.026Z,14.68
2023-03-21T09:15:40.218Z,12.38
2023-03-21T09:16:42.254Z,15.18
2023-03-21T09:17:44.133Z,12.77
2023-03-21T09:18:45.752Z,13.38
2023-03-21T09:19:47.409Z,13.45
2023-03-21T09:20:49.073Z,12.00
2023-03-21T09:21:50.633Z,12.67
2023-03-21T09:22:52.487Z,14.88
2023-03-21T09:23:54.625Z,14.43
2023-03-21T09:24:56.357Z,13.48
2023-03-21T09:25:58.256Z,13.63
2023-03-21T09:26:59.881Z,14.13
2023-03-21T09:28:01.480Z,13.82
2023-03-21T09:29:03.336Z,12.95
2023-03-21T09:30:05.478Z,11.70
2023-03-21T09:31:07.646Z,13.15
2023-03-21T09:32:09.517Z,13.67
2023-03-21T09:33:11.174Z,12.63
2023-03-21T09:34:13.141Z,13.55
2023-03-21T09:35:15.558Z,14.10
2023-03-21T09:36:17.552Z,19.08
2023-03-21T09:37:19.437Z,12.10
2023-03-21T09:38:21.517Z,12.23
2023-03-21T09:39:23.908Z,9.48
2023-03-21T09:40:44.353Z,11.32
2023-03-21T09:41:54.643Z,11.73
2023-03-21T09:42:56.285Z,10.27
2023-03-21T09:44:04.183Z,12.82
2023-03-21T09:45:08.866Z,13.18
2023-03-21T09:46:15.384Z,11.82
2023-03-21T09:47:20.219Z,9.75
2023-03-21T09:48:47.002Z,14.55
2023-03-21T09:50:07.550Z,11.40
2023-03-21T09:51:17.100Z,10.25
2023-03-21T09:52:21.804Z,13.05
2023-03-21T09:53:28.692Z,15.98
2023-03-21T09:54:33.342Z,10.50
2023-03-21T09:55:36.459Z,14.48
2023-03-21T09:56:39.624Z,14.98
2023-03-21T09:57:42.536Z,13.23
2023-03-21T09:58:46.622Z,13.13
2023-03-21T09:59:48.699Z,15.40
2023-03-21T10:00:51.484Z,14.48
2023-03-21T10:01:53.158Z,12.20
2023-03-21T10:02:57.434Z,12.65
2023-03-21T10:04:01.162Z,13.35
2023-03-21T10:05:03.963Z,12.50
2023-03-21T10:06:11.352Z,17.33
2023-03-21T10:07:13.486Z,15.10
2023-03-21T10:08:44.901Z,12.52
2023-03-21T10:09:47.061Z,13.10
2023-03-21T10:10:50.323Z,15.25
2023-03-21T10:11:54.191Z,13.55
2023-03-21T10:12:56.581Z,18.02
2023-03-21T10:14:07.070Z,15.02
2023-03-21T10:15:08.895Z,12.88
2023-03-21T10:16:20.320Z,11.37
2023-03-21T10:17:25.231Z,12.95
2023-03-21T10:18:29.534Z,13.48
2023-03-21T10:19:31.170Z,13.05
2023-03-21T10:20:34.488Z,12.07
2023-03-21T10:21:59.082Z,11.02
2023-03-21T10:23:01.054Z,10.80
2023-03-21T10:24:02.770Z,14.35
2023-03-21T10:25:05.138Z,13.23
2023-03-21T10:26:07.340Z,13.25
2023-03-21T10:27:10.043Z,13.80
2023-03-21T10:28:49.997Z,12.88
2023-03-21T10:29:53.870Z,14.30
2023-03-21T10:31:03.910Z,19.02
2023-03-21T10:32:08.857Z,23.70
2023-03-21T10:33:15.705Z,25.27
2023-03-21T10:34:27.538Z,13.65
2023-03-21T10:35:29.188Z,13.18
2023-03-21T10:36:33.012Z,15.18
2023-03-21T10:37:34.703Z,15.10
2023-03-21T10:38:38.170Z,13.17
2023-03-21T10:39:39.758Z,11.60
2023-03-21T10:40:41.478Z,12.57
2023-03-21T10:41:43.787Z,11.65
2023-03-21T10:42:45.672Z,9.70
2023-03-21T10:43:47.413Z,10.88
2023-03-21T10:44:49.678Z,14.52
2023-03-21T10:45:51.795Z,24.92
2023-03-21T10:46:58.150Z,16.13
2023-03-21T10:48:07.458Z,10.88
2023-03-21T10:49:09.157Z,11.13
2023-03-21T10:50:15.535Z,11.18
2023-03-21T10:51:19.833Z,9.75
2023-03-21T10:52:22.875Z,11.18
2023-03-21T10:53:29.876Z,11.45
2023-03-21T10:54:32.778Z,10.25
2023-03-21T10:55:34.948Z,10.57
2023-03-21T10:56:37.627Z,10.00
2023-03-21T10:57:39.482Z,12.30
2023-03-21T10:58:50.130Z,9.40
2023-03-21T11:00:00.392Z,10.53
2023-03-21T11:01:07.242Z,10.13
2023-03-21T11:02:17.005Z,12.27
2023-03-21T11:03:23.132Z,13.00
2023-03-21T11:04:29.261Z,12.60
2023-03-21T11:05:41.427Z,10.63
2023-03-21T11:06:45.925Z,12.02
2023-03-21T11:07:47.602Z,12.50
2023-03-21T11:08:51.072Z,11.90
2023-03-21T11:09:57.597Z,12.73
2023-03-21T11:10:59.364Z,12.13
2023-03-21T11:12:05.503Z,11.82
2023-03-21T11:13:09.022Z,12.88
2023-03-21T11:14:24.990Z,9.63
2023-03-21T11:15:29.252Z,11.55
2023-03-21T11:16:40.791Z,8.88
2023-03-21T11:17:43.862Z,11.57
2023-03-21T11:18:49.222Z,11.45
2023-03-21T11:19:50.742Z,11.15
2023-03-21T11:21:09.868Z,10.75
2023-03-21T11:22:11.694Z,11.30
2023-03-21T11:23:13.575Z,12.00
2023-03-21T11:24:17.509Z,10.68
2023-03-21T11:25:31.281Z,9.60
2023-03-21T11:26:37.382Z,16.35
2023-03-21T11:27:48.229Z,10.38
2023-03-21T11:28:50.271Z,8.13
2023-03-21T11:29:51.927Z,13.52
2023-03-21T11:30:58.045Z,10.77
2023-03-21T11:32:10.557Z,12.00
2023-03-21T11:33:12.416Z,9.50
2023-03-21T11:34:24.779Z,10.98
2023-03-21T11:35:29.146Z,11.32
2023-03-21T11:36:34.692Z,10.13
2023-03-21T11:37:42.504Z,13.00
2023-03-21T11:38:44.436Z,9.95
2023-03-21T11:39:46.073Z,11.73
2023-03-21T11:40:56.858Z,9.32
2023-03-21T11:41:58.595Z,10.88
2023-03-21T11:43:04.374Z,12.30
2023-03-21T11:44:06.205Z,9.17
2023-03-21T11:45:16.512Z,8.02
2023-03-21T11:46:23.158Z,11.82
2023-03-21T11:47:25.322Z,11.07
2023-03-21T11:48:27.270Z,11.25
2023-03-21T11:49:28.987Z,10.45
2023-03-21T11:50:30.771Z,14.10
2023-03-21T11:51:38.481Z,8.50
2023-03-21T11:52:43.917Z,9.43
2023-03-21T11:53:45.690Z,9.25
2023-03-21T11:55:25.769Z,9.40
2023-03-21T11:56:27.834Z,10.60
2023-03-21T11:57:32.106Z,10.80
2023-03-21T11:58:42.899Z,42.95
2023-03-21T11:59:49.596Z,9.65
2023-03-21T12:00:51.092Z,9.85
2023-03-21T12:01:55.466Z,13.65
2023-03-21T12:03:03.319Z,11.63
2023-03-21T12:04:09.879Z,9.43
2023-03-21T12:05:18.422Z,8.65
2023-03-21T12:06:26.767Z,17.20
2023-03-21T12:07:30.912Z,9.45
2023-03-21T12:08:44.552Z,8.35
2023-03-21T12:10:04.536Z,9.25
2023-03-21T12:11:23.282Z,8.77
2023-03-21T12:12:45.274Z,8.85
2023-03-21T12:13:46.838Z,7.93
2023-03-21T12:15:10.961Z,8.90
2023-03-21T12:16:32.783Z,9.18
2023-03-21T12:17:34.478Z,9.05
2023-03-21T12:18:36.145Z,8.50
2023-03-21T12:19:43.934Z,12.00
2023-03-21T12:20:49.313Z,9.10
2023-03-21T12:22:03.570Z,7.80
2023-03-21T12:23:11.013Z,9.43
2023-03-21T12:24:27.022Z,10.52
2023-03-21T12:25:33.537Z,8.52
2023-03-21T12:26:52.172Z,9.20
2023-03-21T12:28:06.185Z,9.57
2023-03-21T12:29:10.873Z,9.70
2023-03-21T12:30:18.644Z,8.73
2023-03-21T12:31:29.512Z,9.43
2023-03-21T12:32:42.040Z,9.95
2023-03-21T12:34:04.106Z,8.82
2023-03-21T12:35:08.791Z,10.27
2023-03-21T12:36:13.436Z,9.75
2023-03-21T12:37:26.572Z,8.63
2023-03-21T12:38:40.396Z,11.60
2023-03-21T12:39:45.204Z,9.15
2023-03-21T12:40:49.984Z,11.35
2023-03-21T12:41:57.382Z,13.20
2023-03-21T12:43:17.492Z,9.40
2023-03-21T12:44:24.658Z,12.93
2023-03-21T12:45:37.398Z,9.50
2023-03-21T12:46:55.518Z,9.10
2023-03-21T12:48:15.382Z,9.65
2023-03-21T12:49:21.409Z,8.95
2023-03-21T12:50:28.029Z,10.98
2023-03-21T12:51:31.606Z,9.02
2023-03-21T12:52:39.412Z,10.95
2023-03-21T12:53:52.800Z,11.33
2023-03-21T12:55:20.772Z,9.48
2023-03-21T12:56:25.888Z,11.63
2023-03-21T12:57:47.720Z,9.52
2023-03-21T12:59:00.014Z,9.10
2023-03-21T13:00:08.385Z,10.10
2023-03-21T13:01:10.815Z,8.02
2023-03-21T13:02:15.342Z,8.75
2023-03-21T13:03:39.907Z,9.15
2023-03-21T13:04:52.376Z,8.95
2023-03-21T13:06:03.937Z,8.23
2023-03-21T13:07:07.777Z,10.18
2023-03-21T13:08:15.986Z,8.73
2023-03-21T13:09:37.714Z,9.45
2023-03-21T13:10:40.661Z,9.25
2023-03-21T13:11:43.151Z,10.60
2023-03-21T13:12:53.992Z,8.63
2023-03-21T13:14:06.921Z,9.43
2023-03-21T13:15:24.297Z,8.45
2023-03-21T13:16:30.340Z,11.75
2023-03-21T13:17:43.117Z,8.40
2023-03-21T13:19:09.813Z,8.32
2023-03-21T13:20:30.070Z,10.57
2023-03-21T13:21:43.809Z,8.13
2023-03-21T13:22:45.837Z,10.45
2023-03-21T13:24:00.055Z,9.02
2023-03-21T13:25:06.490Z,9.52
2023-03-21T13:26:10.036Z,8.30
2023-03-21T13:27:14.452Z,9.68
2023-03-21T13:28:18.902Z,18.70
2023-03-21T13:29:23.467Z,10.13
2023-03-21T13:30:26.362Z,9.10
2023-03-21T13:31:30.562Z,8.75
2023-03-21T13:32:36.025Z,9.43
2023-03-21T13:33:40.095Z,20.10
2023-03-21T13:34:41.806Z,9.95
2023-03-21T13:35:44.794Z,7.72
2023-03-21T13:36:48.404Z,8.55
2023-03-21T13:37:51.580Z,13.00
2023-03-21T13:38:54.506Z,18.23
2023-03-21T13:39:59.982Z,18.23
2023-03-21T13:41:07.322Z,11.40
2023-03-21T13:42:13.212Z,8.85
2023-03-21T13:43:33.125Z,9.63
2023-03-21T13:44:43.828Z,11.73
2023-03-21T13:45:46.925Z,9.82
2023-03-21T13:46:54.979Z,10.63
2023-03-21T13:47:58.563Z,9.05
2023-03-21T13:49:01.604Z,8.50
2023-03-21T13:50:18.521Z,8.85
2023-03-21T13:51:37.501Z,7.87
2023-03-21T13:52:39.103Z,7.05
2023-03-21T13:53:41.682Z,10.82
2023-03-21T13:54:46.358Z,10.10
2023-03-21T13:55:57.869Z,9.75
2023-03-21T13:57:01.478Z,8.32
2023-03-21T13:58:22.025Z,9.52
2023-03-21T13:59:35.789Z,8.20
2023-03-21T14:00:39.179Z,7.28
2023-03-21T14:01:42.030Z,8.27
2023-03-21T14:03:10.432Z,9.13